Terminal Aerodrome Forecast
Issued by NWS

Home | Current Version | Previous Version | Text Only | Print | Product List | Glossary Off
Versions: 1 2 3 4 5 6 7 8 9 10 11 12 13 14 15 16 17 18 19 20

000
FTUS41 KCLE 310300 AAA
TAFFDY
TAF AMD
KFDY 310338Z 3104/3124 VRB05KT 6SM -SHRA BKN050 OVC080
      WS020/24040KT
     FM310600 22010KT P6SM SCT050 BKN080 WS020/24040KT
      TEMPO 3106/3109 -SHRA BKN050
     FM310900 24015G25KT P6SM BKN080 OVC250
     FM311400 33012G20KT P6SM BKN045
     FM312100 36007KT P6SM BKN060=

USA.gov is the U.S. government's official web portal to all federal, state and local government web resources and services.